CDW2 weather

Baddeck (Crown Jewel) Airport
Baddeck, Nova Scotia, Canada

Public forecast

Using degrees Celsius for public forecast. Weather courtesy of forecast.io.

Closest aviation weather report (METAR) to Baddeck (Crown Jewel) Airport

Closest report is Sydney / J.A. Douglas McCurdy Airport, 30.6 nm (56.7 km) E. Retrieved 2020/01/25 16:00 UTC (49 minutes ago):

CYQY 251600Z VRB02KT 15SM FEW015 M04/M08 A3047 RMK SC1 SLP325

Closest aviation forecast (TAF) to Baddeck (Crown Jewel) Airport

Closest forecast is Sydney / J.A. Douglas McCurdy Airport, 30.6 nm (56.7 km) E. Retrieved 2020/01/25 12:39 UTC (4 hours ago):

TAF CYQY 251138Z 2512/2524 VRB03KT P6SM FEW015 SCT120 BECMG 2522/2524 15005KT RMK NXT FCST BY 251800Z